Long Branch, West Virginia
Current Conditions -  °F | °C
As of 3:51 PM on Friday 19 Dec 2014 (Local Time) from KBKW Reporting Station
Clear Clear  
Wind Chill: 24°   Ceiling: Unl
Heat Index: 32°   Visibility: 10mi
Dew Point: 21°   Wind: 9mph
Humidity: 64%   Direction: 350°N
Pressure: 30.12"   Gusts: NA
Location:  37.9226°N, 81.2757°W
Report Text: KBKW 192051Z AUTO 35008KT 10SM CLR 00/M06 A3012 RMK AO2 SLP231 T00001061 58007
Loading
Personal Weather Stations






























Interactive Weather Map New forecast layout! Learn more

10-Day Weather Forecast

Advertisements
Track Severe Weather on mobile